Time;durP1;ratioP1;P1;durP2;ratioP2;P2;SDS_P1;SDS_P2;PMS_P1;PMS_P2;Temp;Humidity;BMP_temperature;BMP_pressure;BME280_temperature;BME280_humidity;BME280_pressure;Samples;Min_cycle;Max_cycle;Signal;HPM_P1;HPM_P2
2022/06/18 00:00:22;;;;;;;5.10;2.85;;;;;;;23.75;51.53;101538.09;3569646;40;20054;-62
2022/06/18 00:02:49;;;;;;;5.15;2.72;;;;;;;23.65;52.29;101540.94;3570742;40;20060;-62
2022/06/18 00:05:18;;;;;;;10.13;3.28;;;;;;;23.61;52.27;101534.91;3567795;40;20057;-61
2022/06/18 00:07:49;;;;;;;5.70;2.60;;;;;;;23.58;52.36;101539.88;3570845;40;20354;-62
2022/06/18 00:10:25;;;;;;;6.13;2.65;;;;;;;23.53;52.38;101531.25;3569786;40;20100;-61
2022/06/18 00:15:39;;;;;;;5.55;2.80;;;;;;;23.45;52.99;101531.22;3569266;40;20060;-62
2022/06/18 00:18:13;;;;;;;5.53;2.70;;;;;;;23.40;53.23;101527.03;3568908;40;20111;-64
2022/06/18 00:20:41;;;;;;;9.57;2.88;;;;;;;23.36;53.25;101527.53;3570322;40;20064;-64
2022/06/18 00:23:14;;;;;;;3.03;2.72;;;;;;;23.17;53.75;101499.28;3569409;40;20312;-64
2022/06/18 00:25:46;;;;;;;4.93;2.70;;;;;;;23.25;53.92;101520.44;3569381;40;20096;-64
2022/06/18 00:28:21;;;;;;;5.22;3.05;;;;;;;23.24;54.15;101526.94;3567452;40;20138;-64
2022/06/18 00:30:49;;;;;;;4.50;2.72;;;;;;;23.19;53.90;101518.34;3567884;40;20475;-61
2022/06/18 00:33:16;;;;;;;7.55;2.90;;;;;;;23.13;54.43;101524.47;3570049;40;20155;-64
2022/06/18 00:35:43;;;;;;;4.40;2.80;;;;;;;22.90;54.84;101492.06;3570988;40;20053;-64
2022/06/18 00:38:24;;;;;;;4.28;2.72;;;;;;;22.91;54.39;101510.22;3569117;40;20343;-63
2022/06/18 00:40:51;;;;;;;2.97;2.63;;;;;;;22.92;54.82;101517.41;3568722;40;21680;-64
2022/06/18 00:43:27;;;;;;;4.18;2.60;;;;;;;22.73;54.86;101489.31;3569964;40;20078;-64
2022/06/18 00:46:21;;;;;;;5.72;3.00;;;;;;;22.87;55.40;101513.44;3567243;40;20060;-63
2022/06/18 00:49:06;;;;;;;7.10;2.78;;;;;;;22.80;55.68;101524.16;3556516;40;20060;-64
2022/06/18 00:51:46;;;;;;;3.63;3.10;;;;;;;22.77;55.85;101519.00;3569834;40;20134;-63
2022/06/18 00:54:31;;;;;;;3.55;2.55;;;;;;;22.70;56.31;101515.16;3569342;40;20049;-64
2022/06/18 00:57:35;;;;;;;9.30;2.70;;;;;;;22.64;56.35;101508.41;3569149;40;20131;-63
2022/06/18 01:00:17;;;;;;;3.15;2.67;;;;;;;22.66;56.51;101511.88;3570009;40;20399;-64
2022/06/18 01:02:48;;;;;;;6.22;3.28;;;;;;;22.62;56.66;101515.09;3570373;40;20060;-64
2022/06/18 01:05:23;;;;;;;5.53;2.80;;;;;;;22.56;56.92;101522.06;3569738;40;21663;-63
2022/06/18 01:08:20;;;;;;;7.13;2.92;;;;;;;22.51;56.63;101515.31;3570804;40;20753;-63
2022/06/18 01:11:03;;;;;;;8.00;3.40;;;;;;;22.45;57.66;101523.16;3566082;40;20322;-64
2022/06/18 01:13:36;;;;;;;9.32;3.30;;;;;;;22.42;57.28;101515.25;3568975;40;20049;-64
2022/06/18 01:16:07;;;;;;;7.65;3.30;;;;;;;22.39;57.26;101503.72;3571412;40;20110;-64
2022/06/18 01:18:34;;;;;;;7.45;3.20;;;;;;;22.37;57.76;101500.28;3559652;40;20480;-63
2022/06/18 01:21:21;;;;;;;4.85;3.50;;;;;;;22.32;57.98;101503.47;3568594;40;20123;-63
2022/06/18 01:23:57;;;;;;;6.53;3.78;;;;;;;22.27;57.36;101505.84;3569945;40;20065;-64
2022/06/18 01:26:23;;;;;;;9.80;3.50;;;;;;;22.21;58.50;101501.84;3569960;40;20060;-64
2022/06/18 01:28:48;;;;;;;7.57;3.63;;;;;;;22.16;58.81;101500.56;3569792;40;20064;-64
2022/06/18 01:31:14;;;;;;;5.22;3.40;;;;;;;22.13;58.69;101501.69;3570254;40;20065;-64
2022/06/18 01:33:40;;;;;;;6.00;3.63;;;;;;;22.08;58.54;101503.19;3570553;40;20060;-64
2022/06/18 01:36:11;;;;;;;7.38;3.30;;;;;;;22.01;58.55;101487.38;3568911;40;20057;-64
2022/06/18 01:38:44;;;;;;;6.95;3.55;;;;;;;22.08;59.22;101509.53;3571447;40;20088;-64
2022/06/18 01:44:20;;;;;;;5.28;3.47;;;;;;;22.03;59.24;101507.22;3569583;40;20067;-64
2022/06/18 01:46:52;;;;;;;10.68;3.30;;;;;;;21.98;58.92;101503.25;3573733;40;20064;-64
2022/06/18 01:49:27;;;;;;;6.13;3.57;;;;;;;21.92;59.78;101496.50;3571644;40;20088;-64
2022/06/18 01:52:01;;;;;;;8.32;3.40;;;;;;;21.79;59.93;101485.06;3571437;40;20927;-64
2022/06/18 01:54:39;;;;;;;5.78;3.22;;;;;;;21.80;60.46;101503.19;3570975;40;20061;-64
2022/06/18 01:57:24;;;;;;;7.25;3.58;;;;;;;21.70;60.41;101492.28;3560716;40;20053;-63
2022/06/18 02:00:00;;;;;;;6.45;3.38;;;;;;;21.62;61.10;101488.59;3571859;40;20079;-64
2022/06/18 02:02:26;;;;;;;5.53;3.60;;;;;;;21.60;61.29;101490.59;3571905;40;20056;-64
2022/06/18 02:04:52;;;;;;;5.70;3.40;;;;;;;21.59;61.45;101494.34;3570772;40;20058;-64
2022/06/18 02:07:20;;;;;;;6.72;3.45;;;;;;;21.60;61.01;101490.59;3570914;40;20275;-64
2022/06/18 02:10:00;;;;;;;5.72;3.53;;;;;;;21.56;61.40;101496.38;3570875;40;20046;-64
2022/06/18 02:12:34;;;;;;;7.03;3.58;;;;;;;21.58;61.61;101493.50;3570380;40;20324;-62
2022/06/18 02:15:09;;;;;;;6.07;3.78;;;;;;;21.56;61.43;101492.78;3569213;40;20051;-64
2022/06/18 02:17:38;;;;;;;4.78;3.90;;;;;;;21.54;60.99;101487.47;3570982;40;20092;-64
2022/06/18 02:20:25;;;;;;;5.65;3.72;;;;;;;21.52;61.60;101483.16;3570005;40;20056;-64
2022/06/18 02:22:55;;;;;;;4.78;3.75;;;;;;;21.50;60.91;101486.06;3561530;40;20363;-64
2022/06/18 02:25:27;;;;;;;9.02;4.13;;;;;;;21.52;61.44;101489.47;3569509;40;20056;-64
2022/06/18 02:28:11;;;;;;;6.40;4.03;;;;;;;21.54;61.31;101492.94;3570098;40;20072;-64
2022/06/18 02:30:38;;;;;;;5.95;4.10;;;;;;;21.54;61.06;101486.63;3573027;40;20053;-62
2022/06/18 02:33:10;;;;;;;6.90;4.10;;;;;;;21.55;60.91;101494.66;3563846;40;20101;-63
2022/06/18 02:35:37;;;;;;;5.50;4.10;;;;;;;21.59;60.42;101492.47;3570519;40;20052;-64
2022/06/18 02:38:21;;;;;;;8.85;4.65;;;;;;;21.61;60.62;101492.34;3561715;40;20119;-64
2022/06/18 02:40:47;;;;;;;7.30;3.70;;;;;;;21.49;60.40;101467.91;3570554;40;20057;-64
2022/06/18 02:43:17;;;;;;;7.53;4.00;;;;;;;21.54;60.64;101482.00;3570518;40;20089;-64
2022/06/18 02:45:51;;;;;;;8.80;4.47;;;;;;;21.54;61.40;101495.69;3571305;40;20049;-64
2022/06/18 02:48:17;;;;;;;4.43;4.00;;;;;;;21.52;61.19;101494.09;3570814;40;20056;-64
2022/06/18 02:50:43;;;;;;;6.05;4.03;;;;;;;21.46;61.96;101481.88;3572426;40;20457;-64
2022/06/18 02:53:12;;;;;;;7.32;4.60;;;;;;;21.47;61.32;101486.34;3569596;40;20085;-64
2022/06/18 02:55:46;;;;;;;5.38;4.20;;;;;;;21.47;61.51;101488.19;3569505;40;20057;-60
2022/06/18 02:58:27;;;;;;;8.75;4.53;;;;;;;21.47;61.40;101485.47;3571559;40;20079;-62
2022/06/18 03:01:02;;;;;;;8.52;4.13;;;;;;;21.30;61.53;101446.06;3570500;40;20057;-63
2022/06/18 03:03:39;;;;;;;5.80;4.72;;;;;;;21.44;61.37;101481.19;3569156;40;20100;-63
2022/06/18 03:06:07;;;;;;;6.93;4.45;;;;;;;21.44;61.91;101481.19;3567693;40;20057;-62
2022/06/18 03:08:35;;;;;;;6.00;4.60;;;;;;;21.41;61.63;101478.75;3571109;40;20285;-61
2022/06/18 03:13:45;;;;;;;7.20;4.43;;;;;;;21.37;61.78;101480.03;3571740;40;20107;-63
2022/06/18 03:16:16;;;;;;;6.43;4.72;;;;;;;21.41;61.52;101484.22;3567148;40;20076;-63
2022/06/18 03:18:45;;;;;;;5.93;4.60;;;;;;;21.23;61.74;101464.09;3568404;40;20052;-62
2022/06/18 03:21:39;;;;;;;6.18;4.10;;;;;;;21.37;62.06;101492.84;3569882;40;20084;-62
2022/06/18 03:24:05;;;;;;;7.25;4.50;;;;;;;21.32;62.29;101487.81;3572855;40;20052;-63
2022/06/18 03:26:32;;;;;;;5.82;4.50;;;;;;;21.29;62.22;101488.09;3570381;40;20053;-63
2022/06/18 03:28:58;;;;;;;9.85;5.00;;;;;;;21.32;61.56;101493.28;3569446;40;20804;-62
2022/06/18 03:31:24;;;;;;;7.82;5.10;;;;;;;21.35;61.43;101493.00;3570287;40;20183;-63
2022/06/18 03:33:50;;;;;;;6.07;4.80;;;;;;;21.34;62.12;101496.69;3570590;40;20368;-63
2022/06/18 03:36:19;;;;;;;7.72;4.97;;;;;;;21.25;61.32;101475.72;3566296;40;20054;-62
2022/06/18 03:38:46;;;;;;;7.47;5.55;;;;;;;21.36;61.91;101494.72;3569622;40;20056;-62
2022/06/18 03:41:14;;;;;;;11.00;5.18;;;;;;;21.30;62.25;101489.81;3568414;40;20100;-63
2022/06/18 03:43:39;;;;;;;11.40;5.47;;;;;;;21.34;61.67;101504.91;3569500;40;20070;-62
2022/06/18 03:46:10;;;;;;;10.10;5.60;;;;;;;21.35;61.74;101495.75;3570555;40;20982;-61
2022/06/18 03:48:45;;;;;;;11.77;5.95;;;;;;;21.35;62.03;101498.47;3568474;40;20079;-62
2022/06/18 03:51:13;;;;;;;8.25;5.05;;;;;;;21.34;61.80;101491.22;3569280;40;20123;-62
2022/06/18 03:53:38;;;;;;;16.55;5.95;;;;;;;21.33;62.03;101492.25;3568812;40;20059;-63
2022/06/18 03:56:05;;;;;;;10.05;5.55;;;;;;;21.36;62.08;101486.53;3572982;40;20060;-63
2022/06/18 03:58:31;;;;;;;7.32;5.03;;;;;;;21.39;61.67;101488.97;3570703;40;20154;-63
2022/06/18 04:00:57;;;;;;;10.15;5.68;;;;;;;21.43;61.79;101487.63;3572678;40;20056;-63
2022/06/18 04:03:22;;;;;;;10.07;5.15;;;;;;;21.43;61.05;101493.13;3569613;40;20311;-63
2022/06/18 04:05:48;;;;;;;9.95;5.68;;;;;;;21.44;61.16;101480.28;3569644;40;20076;-63
2022/06/18 04:08:20;;;;;;;9.40;5.65;;;;;;;21.44;61.44;101486.66;3569263;40;21584;-63
2022/06/18 04:10:47;;;;;;;11.45;5.75;;;;;;;21.28;61.50;101459.00;3568369;40;20057;-63
2022/06/18 04:13:14;;;;;;;8.48;5.75;;;;;;;21.21;61.76;101444.22;3568992;40;20059;-63
2022/06/18 04:15:41;;;;;;;8.45;5.50;;;;;;;21.36;62.28;101475.59;3572881;40;20072;-62
2022/06/18 04:18:06;;;;;;;10.48;5.65;;;;;;;21.36;61.90;101475.59;3572485;40;20079;-62
2022/06/18 04:20:36;;;;;;;8.00;5.30;;;;;;;21.36;62.25;101470.13;3570442;40;20049;-63
2022/06/18 04:23:04;;;;;;;8.25;5.50;;;;;;;21.39;62.12;101483.50;3566854;40;20110;-63
2022/06/18 04:25:31;;;;;;;6.82;5.82;;;;;;;21.35;62.17;101473.88;3569534;40;20052;-60
2022/06/18 04:27:57;;;;;;;6.85;5.43;;;;;;;21.36;62.25;101475.59;3571356;40;20052;-63
2022/06/18 04:30:26;;;;;;;10.05;5.60;;;;;;;21.45;62.19;101479.31;3570083;40;20059;-63
2022/06/18 04:32:53;;;;;;;9.38;5.90;;;;;;;21.43;61.73;101479.44;3570442;40;20056;-63
2022/06/18 04:35:19;;;;;;;10.95;6.25;;;;;;;21.46;61.75;101479.13;3574464;40;20057;-63
2022/06/18 04:37:45;;;;;;;8.40;6.15;;;;;;;21.48;61.69;101479.00;3570259;40;20073;-63
2022/06/18 04:40:20;;;;;;;7.40;5.88;;;;;;;21.47;62.03;101480.88;3569745;40;20053;-63
2022/06/18 04:42:45;;;;;;;7.25;5.55;;;;;;;21.54;62.32;101482.00;3570869;40;20105;-63
2022/06/18 04:45:12;;;;;;;11.63;5.93;;;;;;;21.54;62.01;101482.00;3570386;40;20069;-60
2022/06/18 04:47:40;;;;;;;6.75;6.07;;;;;;;21.53;62.49;101474.81;3569869;40;20053;-60
2022/06/18 04:50:14;;;;;;;9.48;6.38;;;;;;;21.62;62.56;101483.09;3558010;40;20053;-61
2022/06/18 04:52:40;;;;;;;7.00;6.25;;;;;;;21.59;61.97;101475.19;3571606;40;20110;-61
2022/06/18 04:55:06;;;;;;;9.32;6.75;;;;;;;21.64;62.25;101475.63;3569707;40;20411;-62
2022/06/18 04:57:31;;;;;;;9.18;6.45;;;;;;;21.70;62.01;101477.75;3568866;40;20088;-62
2022/06/18 04:59:57;;;;;;;7.32;6.15;;;;;;;21.73;62.47;101477.44;3569074;40;20094;-62
2022/06/18 05:02:29;;;;;;;9.43;6.10;;;;;;;21.71;62.04;101474.84;3570776;40;20054;-62
2022/06/18 05:04:55;;;;;;;18.63;6.53;;;;;;;21.83;61.57;101485.63;3570786;40;20059;-62
2022/06/18 05:07:21;;;;;;;9.20;5.80;;;;;;;21.90;61.74;101482.09;3569774;40;20060;-62
2022/06/18 05:09:48;;;;;;;10.60;6.20;;;;;;;21.91;61.25;101481.06;3571543;40;20139;-62
2022/06/18 05:12:15;;;;;;;8.32;5.93;;;;;;;21.91;60.71;101477.47;3570249;40;20060;-62
2022/06/18 05:14:42;;;;;;;10.63;6.28;;;;;;;22.02;60.70;101480.88;3571850;40;20052;-61
2022/06/18 05:17:21;;;;;;;9.90;6.03;;;;;;;22.06;60.83;101480.56;3571322;40;20057;-62
2022/06/18 05:19:47;;;;;;;10.52;6.25;;;;;;;22.12;60.63;101485.44;3568297;40;20056;-61
2022/06/18 05:22:13;;;;;;;6.68;5.93;;;;;;;22.15;60.24;101474.19;3567142;40;20069;-62
2022/06/18 05:24:39;;;;;;;10.85;6.38;;;;;;;22.21;60.05;101481.81;3569424;40;20077;-64
2022/06/18 05:27:06;;;;;;;9.60;5.70;;;;;;;22.33;59.51;101488.78;3568536;40;20068;-62
2022/06/18 05:29:32;;;;;;;6.05;5.43;;;;;;;22.34;59.17;101478.69;3569318;40;20045;-62
2022/06/18 05:31:58;;;;;;;6.93;5.85;;;;;;;22.33;58.96;101472.34;3570009;40;20040;-62
2022/06/18 05:34:23;;;;;;;10.73;5.93;;;;;;;22.48;59.52;101484.47;3569575;40;20304;-62
2022/06/18 05:36:49;;;;;;;9.70;6.50;;;;;;;22.56;59.36;101499.28;3568413;40;20079;-62
2022/06/18 05:39:19;;;;;;;10.93;6.75;;;;;;;22.61;58.68;101499.66;3559025;40;20060;-62
2022/06/18 05:41:45;;;;;;;11.98;6.30;;;;;;;22.65;58.52;101487.38;3569914;40;20060;-62
2022/06/18 05:44:11;;;;;;;11.00;6.85;;;;;;;22.79;58.07;101500.50;3571656;40;20087;-62
2022/06/18 05:46:37;;;;;;;9.50;7.05;;;;;;;22.83;58.01;101501.91;3569487;40;20056;-62
2022/06/18 05:49:03;;;;;;;10.68;6.97;;;;;;;22.82;57.91;101494.72;3569000;40;20060;-62
2022/06/18 05:51:29;;;;;;;11.45;6.78;;;;;;;23.00;57.83;101502.09;3570253;40;20395;-62
2022/06/18 05:53:55;;;;;;;9.43;7.15;;;;;;;23.06;57.83;101495.97;3570094;40;20059;-62
2022/06/18 05:56:20;;;;;;;8.93;6.63;;;;;;;23.15;57.24;101505.97;3570437;40;20056;-62
2022/06/18 05:58:46;;;;;;;10.50;6.40;;;;;;;22.86;56.71;101441.28;3568963;40;20068;-62
2022/06/18 06:01:11;;;;;;;12.13;6.82;;;;;;;23.35;56.27;101506.63;3573836;40;20052;-62
2022/06/18 06:03:37;;;;;;;10.55;6.80;;;;;;;23.44;55.59;101500.16;3570798;40;20108;-62
2022/06/18 06:06:03;;;;;;;13.40;6.50;;;;;;;23.54;55.87;101494.56;3570494;40;20056;-63
2022/06/18 06:08:29;;;;;;;11.13;6.43;;;;;;;23.60;55.09;101502.16;3567192;40;20133;-62
2022/06/18 06:13:39;;;;;;;12.68;6.50;;;;;;;23.77;53.45;101489.38;3572093;40;20130;-62
2022/06/18 06:16:05;;;;;;;16.00;6.15;;;;;;;23.90;53.69;101486.16;3570273;40;20057;-62
2022/06/18 06:18:32;;;;;;;11.55;6.20;;;;;;;24.01;53.83;101481.25;3570596;40;20118;-62
2022/06/18 06:21:00;;;;;;;7.68;5.50;;;;;;;24.13;53.77;101480.91;3568796;40;20057;-62
2022/06/18 06:23:26;;;;;;;14.55;6.18;;;;;;;24.21;52.95;101481.81;3570024;40;20362;-62
2022/06/18 06:25:52;;;;;;;12.25;6.18;;;;;;;24.33;52.15;101479.59;3569185;40;20061;-63
2022/06/18 06:28:26;;;;;;;10.32;5.90;;;;;;;24.44;52.97;101475.69;3569154;40;20398;-62
2022/06/18 06:30:54;;;;;;;10.45;5.65;;;;;;;24.63;51.49;101491.00;3570007;40;20172;-63
2022/06/18 06:33:21;;;;;;;12.85;5.78;;;;;;;24.51;51.17;101454.72;3571260;40;20053;-63
2022/06/18 06:35:48;;;;;;;11.50;5.78;;;;;;;24.82;50.72;101479.66;3575212;40;20045;-62
2022/06/18 06:38:15;;;;;;;9.63;5.20;;;;;;;24.99;51.06;101486.00;3572199;40;20060;-63
2022/06/18 06:40:44;;;;;;;17.15;5.53;;;;;;;24.89;49.60;101438.56;3571504;40;20096;-62
2022/06/18 06:43:13;;;;;;;10.90;5.32;;;;;;;25.20;49.67;101475.34;3570960;40;20126;-62
2022/06/18 06:45:39;;;;;;;12.68;5.20;;;;;;;25.47;49.61;101489.75;3570710;40;20060;-61
2022/06/18 06:48:05;;;;;;;10.23;4.88;;;;;;;25.62;48.74;101487.97;3571140;40;20108;-62
2022/06/18 06:50:31;;;;;;;10.27;4.97;;;;;;;25.66;48.84;101483.84;3570349;40;20064;-63
2022/06/18 06:52:58;;;;;;;12.25;5.03;;;;;;;25.88;47.84;101486.84;3572091;40;20426;-64
2022/06/18 06:58:19;;;;;;;12.55;4.85;;;;;;;26.05;48.55;101485.75;3570313;40;20075;-63
2022/06/18 07:00:49;;;;;;;11.23;5.10;;;;;;;26.11;47.29;101485.03;3578699;40;20084;-64
2022/06/18 07:03:21;;;;;;;11.48;5.68;;;;;;;26.13;47.45;101495.84;3571778;40;20369;-63
2022/06/18 07:05:46;;;;;;;11.70;5.20;;;;;;;26.20;47.45;101490.47;3567767;40;20403;-63
2022/06/18 07:08:13;;;;;;;11.60;5.57;;;;;;;26.31;47.05;101501.09;3576809;40;20056;-63
2022/06/18 07:10:39;;;;;;;12.00;5.55;;;;;;;26.41;47.47;101490.69;3577327;40;20395;-64
2022/06/18 07:13:05;;;;;;;15.48;6.20;;;;;;;26.52;47.15;101494.97;3576572;40;20056;-64
2022/06/18 07:15:34;;;;;;;13.52;6.63;;;;;;;26.51;47.79;101494.09;3567436;40;20462;-65
2022/06/18 07:18:03;;;;;;;16.20;6.50;;;;;;;26.58;47.68;101489.59;3570215;40;20131;-63
2022/06/18 07:20:30;;;;;;;11.48;6.65;;;;;;;26.61;47.03;101497.50;3569025;40;20060;-63
2022/06/18 07:22:58;;;;;;;11.77;6.55;;;;;;;26.68;48.21;101488.47;3569782;40;20358;-64
2022/06/18 07:25:24;;;;;;;12.35;6.25;;;;;;;26.73;46.08;101484.09;3569141;40;20151;-64
2022/06/18 07:27:52;;;;;;;12.27;6.22;;;;;;;26.76;46.85;101493.91;3569125;40;20119;-64
2022/06/18 07:30:20;;;;;;;10.77;6.43;;;;;;;26.75;45.55;101483.94;3571194;40;20126;-63
2022/06/18 07:32:49;;;;;;;9.95;6.18;;;;;;;26.84;45.46;101489.19;3567955;40;20136;-64
2022/06/18 07:35:22;;;;;;;13.82;5.97;;;;;;;26.82;45.57;101484.91;3571141;40;20522;-63
2022/06/18 07:37:48;;;;;;;;;;;;;;;26.85;46.75;101456.94;3566978;40;20068;-64
2022/06/18 07:40:15;;;;;;;14.15;6.20;;;;;;;27.03;46.78;101476.78;3570557;40;19933;-63
2022/06/18 07:42:45;;;;;;;11.60;6.25;;;;;;;27.13;45.11;101476.50;3574421;40;20064;-63
2022/06/18 07:45:21;;;;;;;8.25;6.38;;;;;;;27.29;45.90;101473.59;3569272;40;20092;-63
2022/06/18 07:47:49;;;;;;;10.40;5.60;;;;;;;27.51;45.39;101471.81;3577106;40;20053;-64
2022/06/18 07:50:18;;;;;;;12.82;6.47;;;;;;;27.67;46.60;101473.50;3572150;40;20088;-64
2022/06/18 07:52:44;;;;;;;8.43;5.70;;;;;;;27.84;44.88;101470.56;3570425;40;20105;-63
2022/06/18 07:55:26;;;;;;;14.05;6.10;;;;;;;28.05;46.70;101478.06;3570868;40;20044;-64
2022/06/18 07:57:51;;;;;;;12.35;6.07;;;;;;;28.10;45.22;101468.16;3572533;40;20048;-63
2022/06/18 08:00:21;;;;;;;10.90;5.65;;;;;;;28.14;44.17;101465.84;3574177;40;20051;-64
2022/06/18 08:02:50;;;;;;;10.35;6.03;;;;;;;28.35;44.20;101465.84;3577851;40;20056;-64
2022/06/18 08:05:25;;;;;;;10.00;5.80;;;;;;;28.57;44.24;101457.59;3572529;40;20156;-64
2022/06/18 08:07:51;;;;;;;8.98;5.20;;;;;;;28.71;43.30;101453.91;3572896;40;20053;-65
2022/06/18 08:10:17;;;;;;;11.48;5.40;;;;;;;28.81;42.35;101454.41;3572259;40;20413;-64
2022/06/18 08:12:43;;;;;;;11.20;5.43;;;;;;;29.03;44.02;101460.81;3576308;40;20064;-64
2022/06/18 08:15:10;;;;;;;12.65;5.82;;;;;;;29.03;41.69;101455.28;3577143;40;20053;-64
2022/06/18 08:17:39;;;;;;;12.32;5.47;;;;;;;29.11;43.65;101451.47;3566913;40;20135;-65
2022/06/18 08:20:07;;;;;;;17.15;6.30;;;;;;;29.25;41.43;101456.06;3574636;40;20048;-65
2022/06/18 08:22:38;;;;;;;12.52;6.07;;;;;;;29.36;42.50;101454.63;3573436;40;20380;-65
2022/06/18 08:25:05;;;;;;;13.88;5.93;;;;;;;29.37;41.45;101443.38;3567551;40;20049;-65
2022/06/18 08:27:31;;;;;;;9.52;5.53;;;;;;;29.65;41.43;101448.00;3569767;40;20122;-64
2022/06/18 08:29:57;;;;;;;11.95;5.13;;;;;;;29.79;40.96;101448.94;3572041;40;20057;-64
2022/06/18 08:32:23;;;;;;;9.10;5.22;;;;;;;29.93;41.60;101447.06;3571428;40;20061;-64
2022/06/18 08:34:49;;;;;;;11.10;4.60;;;;;;;30.11;40.87;101439.03;3570938;40;20067;-64
2022/06/18 08:37:14;;;;;;;10.30;5.20;;;;;;;30.22;39.96;101443.97;3569459;40;20053;-65
2022/06/18 08:39:40;;;;;;;9.95;5.13;;;;;;;30.28;39.31;101439.53;3571855;40;20064;-65
2022/06/18 08:42:11;;;;;;;8.85;4.90;;;;;;;30.33;40.57;101436.97;3567493;40;20056;-65
2022/06/18 08:44:42;;;;;;;11.68;5.18;;;;;;;30.49;39.12;101441.28;3568512;40;20069;-66
2022/06/18 08:48:06;;;;;;;10.43;4.97;;;;;;;30.67;39.23;101433.19;3568237;40;20081;-65
2022/06/18 08:50:48;;;;;;;11.20;5.35;;;;;;;30.79;38.43;101435.34;3570595;40;20116;-65
2022/06/18 08:53:36;;;;;;;12.63;4.50;;;;;;;30.91;38.21;101440.03;3566028;40;20091;-65
2022/06/18 08:56:21;;;;;;;16.38;4.43;;;;;;;31.06;37.38;101442.59;3571886;40;20056;-64
2022/06/18 08:59:04;;;;;;;10.73;4.30;;;;;;;31.04;36.50;101443.88;3572625;40;20116;-66
2022/06/18 09:01:54;;;;;;;13.60;4.18;;;;;;;31.31;37.85;101439.97;3570300;40;20065;-65
2022/06/18 09:04:51;;;;;;;6.53;4.03;;;;;;;31.49;37.39;101442.09;3572295;40;20049;-65
2022/06/18 09:07:54;;;;;;;15.75;4.35;;;;;;;31.70;36.08;101445.66;3574380;40;20072;-66
2022/06/18 09:10:46;;;;;;;12.02;4.68;;;;;;;31.87;36.48;101444.94;3577015;40;20432;-64
2022/06/18 09:13:25;;;;;;;10.00;4.50;;;;;;;31.79;35.45;101445.19;3570358;40;20059;-64
2022/06/18 09:16:02;;;;;;;10.10;4.47;;;;;;;31.88;35.77;101448.59;3572364;40;20065;-64
2022/06/18 09:18:52;;;;;;;10.63;4.22;;;;;;;32.08;36.88;101445.72;3573224;40;20138;-65
2022/06/18 09:21:43;;;;;;;11.95;4.53;;;;;;;32.16;37.14;101439.03;3573012;40;20063;-64
2022/06/18 09:24:33;;;;;;;11.93;4.95;;;;;;;32.33;36.20;101449.44;3572223;40;20332;-65
2022/06/18 09:27:07;;;;;;;7.68;4.07;;;;;;;32.48;36.48;101440.81;3571562;40;20078;-65
2022/06/18 09:29:48;;;;;;;10.52;5.05;;;;;;;32.62;35.88;101435.97;3570908;40;20056;-64
2022/06/18 09:32:44;;;;;;;10.23;4.50;;;;;;;32.81;36.25;101425.75;3569093;40;20130;-64
2022/06/18 09:35:28;;;;;;;10.60;4.60;;;;;;;32.92;34.99;101441.75;3571904;40;20056;-64
2022/06/18 09:38:21;;;;;;;10.30;4.53;;;;;;;32.99;35.17;101439.78;3570315;40;20060;-64
2022/06/18 09:41:21;;;;;;;14.23;5.03;;;;;;;33.00;34.02;101438.69;3573440;40;20398;-64
2022/06/18 09:44:08;;;;;;;13.32;4.85;;;;;;;33.21;35.40;101436.56;3556903;40;20105;-64
2022/06/18 09:46:55;;;;;;;15.88;6.05;;;;;;;33.29;34.60;101431.53;3573317;40;20056;-64
2022/06/18 09:49:20;;;;;;;12.75;5.05;;;;;;;33.31;35.60;101431.31;3572291;40;20179;-65
2022/06/18 09:54:37;;;;;;;9.25;4.53;;;;;;;33.33;35.06;101420.75;3571519;40;20048;-64
2022/06/18 09:57:04;;;;;;;13.48;4.88;;;;;;;33.34;33.04;101424.41;3571467;40;20403;-64
2022/06/18 09:59:41;;;;;;;9.63;4.57;;;;;;;33.39;34.00;101422.63;3570176;40;20049;-64
2022/06/18 10:02:23;;;;;;;11.38;4.70;;;;;;;33.48;34.31;101425.97;3570080;40;20095;-65
2022/06/18 10:07:47;;;;;;;11.00;4.90;;;;;;;33.40;33.36;101421.56;3572814;40;20051;-64
2022/06/18 10:10:25;;;;;;;10.88;4.65;;;;;;;33.49;35.32;101420.19;3570661;40;20049;-65
2022/06/18 10:12:59;;;;;;;10.30;5.00;;;;;;;33.69;34.83;101416.31;3571865;40;20045;-64
2022/06/18 10:15:28;;;;;;;12.57;4.63;;;;;;;33.64;33.79;101407.78;3572445;40;20045;-64
2022/06/18 10:18:18;;;;;;;11.18;4.78;;;;;;;33.75;34.21;101418.16;3575165;40;20093;-64
2022/06/18 10:20:56;;;;;;;13.70;4.55;;;;;;;33.95;33.18;101417.88;3572553;40;20053;-65
2022/06/18 10:23:36;;;;;;;10.55;4.95;;;;;;;33.98;34.02;101417.41;3563993;40;20114;-65
2022/06/18 10:26:26;;;;;;;12.43;4.95;;;;;;;34.23;34.88;101413.66;3573534;40;20049;-65
2022/06/18 10:29:43;;;;;;;19.92;4.95;;;;;;;34.31;33.52;101411.34;3575062;40;20056;-64
2022/06/18 10:32:30;;;;;;;12.70;5.47;;;;;;;34.34;32.06;101405.28;3576217;40;20100;-65
2022/06/18 10:35:34;;;;;;;10.63;4.82;;;;;;;34.23;33.30;101399.72;3574279;40;20053;-64
2022/06/18 10:38:32;;;;;;;10.30;4.70;;;;;;;34.13;33.54;101400.28;3572319;40;20059;-64
2022/06/18 10:41:28;;;;;;;9.68;4.95;;;;;;;34.09;33.51;101401.81;3571460;40;20403;-64
2022/06/18 10:44:18;;;;;;;11.95;4.65;;;;;;;34.09;33.86;101368.34;3568708;40;20069;-64
2022/06/18 10:46:44;;;;;;;13.18;4.72;;;;;;;34.39;33.49;101396.22;3572421;40;20064;-64
2022/06/18 10:49:11;;;;;;;13.02;4.72;;;;;;;34.48;33.02;101383.63;3561146;40;20160;-64
2022/06/18 10:51:48;;;;;;;12.48;4.88;;;;;;;34.53;32.38;101382.91;3574558;40;20061;-64
2022/06/18 10:54:16;;;;;;;12.07;5.18;;;;;;;34.54;34.28;101377.09;3571637;40;20088;-64
2022/06/18 10:56:53;;;;;;;9.75;4.90;;;;;;;34.59;32.25;101380.00;3572642;40;20128;-64
2022/06/18 10:59:35;;;;;;;7.68;4.43;;;;;;;34.61;32.87;101368.63;3574451;40;20061;-64
2022/06/18 11:02:12;;;;;;;11.97;5.30;;;;;;;34.77;32.99;101376.25;3575526;40;20086;-64
2022/06/18 11:04:40;;;;;;;12.80;5.22;;;;;;;34.69;32.17;101351.47;3570544;40;20471;-64
2022/06/18 11:07:12;;;;;;;9.13;4.55;;;;;;;34.86;33.69;101369.22;3571832;40;20053;-64
2022/06/18 11:10:04;;;;;;;10.10;5.03;;;;;;;34.82;32.31;101361.56;3571774;40;20127;-64
2022/06/18 11:12:38;;;;;;;13.57;4.75;;;;;;;34.96;32.02;101365.81;3568774;40;20064;-64
2022/06/18 11:15:24;;;;;;;10.25;4.70;;;;;;;34.97;32.76;101341.50;3570050;40;20363;-64
2022/06/18 11:17:50;;;;;;;12.30;4.55;;;;;;;34.91;31.55;101348.91;3575161;40;20041;-64
2022/06/18 11:20:15;;;;;;;11.13;4.65;;;;;;;34.82;32.48;101354.03;3568694;40;20104;-64
2022/06/18 11:22:44;;;;;;;14.02;4.78;;;;;;;34.88;30.11;101341.03;3574121;40;20044;-64
2022/06/18 11:25:41;;;;;;;13.13;5.43;;;;;;;35.11;30.47;101337.38;3565164;40;20318;-64
2022/06/18 11:28:20;;;;;;;14.77;5.00;;;;;;;35.33;30.46;101335.66;3568812;40;20060;-64
2022/06/18 11:30:50;;;;;;;15.52;4.88;;;;;;;35.43;30.69;101325.75;3572513;40;20086;-64
2022/06/18 11:33:42;;;;;;;13.27;4.80;;;;;;;35.63;29.82;101329.00;3570895;40;20048;-64
2022/06/18 11:36:16;;;;;;;10.50;4.45;;;;;;;35.56;28.53;101325.50;3569280;40;20290;-64
2022/06/18 11:38:55;;;;;;;11.02;4.60;;;;;;;35.28;29.10;101301.13;3570583;40;20151;-64
2022/06/18 11:41:58;;;;;;;8.95;3.92;;;;;;;35.71;28.93;101319.34;3571999;40;20049;-64
2022/06/18 11:44:38;;;;;;;8.50;3.92;;;;;;;35.75;29.53;101306.59;3561336;40;20048;-65
2022/06/18 11:47:34;;;;;;;12.70;4.38;;;;;;;36.03;29.18;101314.09;3567890;40;20057;-64
2022/06/18 11:50:07;;;;;;;9.48;4.18;;;;;;;36.38;28.28;101307.41;3572706;40;20109;-64
2022/06/18 11:53:07;;;;;;;15.43;4.57;;;;;;;36.34;28.00;101303.44;3569174;40;20134;-64
2022/06/18 11:55:53;;;;;;;13.55;4.35;;;;;;;36.58;27.82;101313.38;3572138;40;20129;-64
2022/06/18 11:58:52;;;;;;;14.15;4.72;;;;;;;36.79;27.13;101303.31;3570529;40;20053;-64
2022/06/18 12:01:39;;;;;;;11.50;4.03;;;;;;;36.88;26.76;101300.91;3568683;40;20060;-64
2022/06/18 12:04:47;;;;;;;11.43;4.40;;;;;;;37.02;26.58;101295.81;3572883;40;20049;-64
2022/06/18 12:07:25;;;;;;;9.25;3.90;;;;;;;36.96;26.95;101303.28;3569284;40;20051;-64
2022/06/18 12:09:52;;;;;;;9.30;4.32;;;;;;;37.05;27.01;101301.75;3560727;40;20111;-64